sensor_id;sensor_type;location;lat;lon;timestamp;temperature;humidity
78733;DHT22;68056;52.530;5.454;2023-04-15T00:00:10;8.80;58.60
78733;DHT22;68056;52.530;5.454;2023-04-15T00:02:36;8.80;58.70
78733;DHT22;68056;52.530;5.454;2023-04-15T00:05:03;8.80;58.70
78733;DHT22;68056;52.530;5.454;2023-04-15T00:07:29;8.70;58.70
78733;DHT22;68056;52.530;5.454;2023-04-15T00:09:56;8.70;58.70
78733;DHT22;68056;52.530;5.454;2023-04-15T00:12:22;8.60;58.80
78733;DHT22;68056;52.530;5.454;2023-04-15T00:14:48;8.60;58.90
78733;DHT22;68056;52.530;5.454;2023-04-15T00:17:14;8.60;59.00
78733;DHT22;68056;52.530;5.454;2023-04-15T00:19:40;8.50;59.10
78733;DHT22;68056;52.530;5.454;2023-04-15T00:22:06;8.50;59.20
78733;DHT22;68056;52.530;5.454;2023-04-15T00:24:32;8.50;59.20
78733;DHT22;68056;52.530;5.454;2023-04-15T00:26:58;8.40;59.30
78733;DHT22;68056;52.530;5.454;2023-04-15T00:29:24;8.40;59.50
78733;DHT22;68056;52.530;5.454;2023-04-15T00:31:50;8.30;59.60
78733;DHT22;68056;52.530;5.454;2023-04-15T00:34:16;8.30;59.60
78733;DHT22;68056;52.530;5.454;2023-04-15T00:36:42;8.30;59.70
78733;DHT22;68056;52.530;5.454;2023-04-15T00:39:08;8.20;59.70
78733;DHT22;68056;52.530;5.454;2023-04-15T00:41:33;8.20;59.80
78733;DHT22;68056;52.530;5.454;2023-04-15T00:44:00;8.20;59.80
78733;DHT22;68056;52.530;5.454;2023-04-15T00:46:28;8.20;59.80
78733;DHT22;68056;52.530;5.454;2023-04-15T00:48:55;8.10;59.90
78733;DHT22;68056;52.530;5.454;2023-04-15T00:51:20;8.00;60.00
78733;DHT22;68056;52.530;5.454;2023-04-15T00:53:46;8.00;60.10
78733;DHT22;68056;52.530;5.454;2023-04-15T00:56:12;7.80;60.30
78733;DHT22;68056;52.530;5.454;2023-04-15T00:58:38;7.80;60.40
78733;DHT22;68056;52.530;5.454;2023-04-15T01:01:04;7.70;60.50
78733;DHT22;68056;52.530;5.454;2023-04-15T01:03:30;7.60;60.50
78733;DHT22;68056;52.530;5.454;2023-04-15T01:05:56;7.60;60.60
78733;DHT22;68056;52.530;5.454;2023-04-15T01:08:28;7.50;60.70
78733;DHT22;68056;52.530;5.454;2023-04-15T01:10:55;7.50;60.70
78733;DHT22;68056;52.530;5.454;2023-04-15T01:13:23;7.50;60.80
78733;DHT22;68056;52.530;5.454;2023-04-15T01:15:49;7.50;60.80
78733;DHT22;68056;52.530;5.454;2023-04-15T01:18:16;7.50;60.80
78733;DHT22;68056;52.530;5.454;2023-04-15T01:20:42;7.50;60.70
78733;DHT22;68056;52.530;5.454;2023-04-15T01:23:08;7.50;60.70
78733;DHT22;68056;52.530;5.454;2023-04-15T01:25:34;7.50;60.80
78733;DHT22;68056;52.530;5.454;2023-04-15T01:28:00;7.50;60.90
78733;DHT22;68056;52.530;5.454;2023-04-15T01:30:26;7.50;60.90
78733;DHT22;68056;52.530;5.454;2023-04-15T01:32:52;7.50;60.90
78733;DHT22;68056;52.530;5.454;2023-04-15T01:35:18;7.60;60.90
78733;DHT22;68056;52.530;5.454;2023-04-15T01:37:43;7.60;60.90
78733;DHT22;68056;52.530;5.454;2023-04-15T01:40:09;7.60;60.90
78733;DHT22;68056;52.530;5.454;2023-04-15T01:42:35;7.60;60.90
78733;DHT22;68056;52.530;5.454;2023-04-15T01:45:02;7.60;60.90
78733;DHT22;68056;52.530;5.454;2023-04-15T01:47:28;7.60;60.90
78733;DHT22;68056;52.530;5.454;2023-04-15T01:49:53;7.50;60.90
78733;DHT22;68056;52.530;5.454;2023-04-15T01:52:19;7.50;61.00
78733;DHT22;68056;52.530;5.454;2023-04-15T01:54:45;7.50;61.10
78733;DHT22;68056;52.530;5.454;2023-04-15T01:57:11;7.50;61.20
78733;DHT22;68056;52.530;5.454;2023-04-15T01:59:36;7.50;61.30
78733;DHT22;68056;52.530;5.454;2023-04-15T02:02:02;7.40;61.40
78733;DHT22;68056;52.530;5.454;2023-04-15T02:04:28;7.50;61.40
78733;DHT22;68056;52.530;5.454;2023-04-15T02:06:54;7.40;61.50
78733;DHT22;68056;52.530;5.454;2023-04-15T02:09:19;7.40;61.50
78733;DHT22;68056;52.530;5.454;2023-04-15T02:11:45;7.40;61.60
78733;DHT22;68056;52.530;5.454;2023-04-15T02:14:10;7.40;61.70
78733;DHT22;68056;52.530;5.454;2023-04-15T02:16:37;7.40;61.70
78733;DHT22;68056;52.530;5.454;2023-04-15T02:19:02;7.40;61.70
78733;DHT22;68056;52.530;5.454;2023-04-15T02:21:29;7.30;61.80
78733;DHT22;68056;52.530;5.454;2023-04-15T02:23:55;7.20;61.90
78733;DHT22;68056;52.530;5.454;2023-04-15T02:26:20;7.20;61.90
78733;DHT22;68056;52.530;5.454;2023-04-15T02:28:47;7.20;61.90
78733;DHT22;68056;52.530;5.454;2023-04-15T02:31:13;7.20;62.00
78733;DHT22;68056;52.530;5.454;2023-04-15T02:33:39;7.20;62.00
78733;DHT22;68056;52.530;5.454;2023-04-15T02:36:05;7.10;62.10
78733;DHT22;68056;52.530;5.454;2023-04-15T02:38:32;7.10;62.20
78733;DHT22;68056;52.530;5.454;2023-04-15T02:40:58;7.00;62.20
78733;DHT22;68056;52.530;5.454;2023-04-15T02:43:23;7.10;62.20
78733;DHT22;68056;52.530;5.454;2023-04-15T02:45:49;7.00;62.30
78733;DHT22;68056;52.530;5.454;2023-04-15T02:48:15;7.00;62.40
78733;DHT22;68056;52.530;5.454;2023-04-15T02:50:44;7.00;62.30
78733;DHT22;68056;52.530;5.454;2023-04-15T02:53:10;7.00;62.30
78733;DHT22;68056;52.530;5.454;2023-04-15T02:55:36;7.00;62.40
78733;DHT22;68056;52.530;5.454;2023-04-15T02:58:01;7.00;62.40
78733;DHT22;68056;52.530;5.454;2023-04-15T03:00:27;7.00;62.50
78733;DHT22;68056;52.530;5.454;2023-04-15T03:02:57;7.00;62.50
78733;DHT22;68056;52.530;5.454;2023-04-15T03:05:23;7.00;62.60
78733;DHT22;68056;52.530;5.454;2023-04-15T03:07:50;7.00;62.60
78733;DHT22;68056;52.530;5.454;2023-04-15T03:10:16;7.00;62.60
78733;DHT22;68056;52.530;5.454;2023-04-15T03:12:41;7.00;62.60
78733;DHT22;68056;52.530;5.454;2023-04-15T03:15:08;6.90;62.60
78733;DHT22;68056;52.530;5.454;2023-04-15T03:17:34;6.90;62.70
78733;DHT22;68056;52.530;5.454;2023-04-15T03:20:04;6.80;62.80
78733;DHT22;68056;52.530;5.454;2023-04-15T03:22:33;6.80;62.80
78733;DHT22;68056;52.530;5.454;2023-04-15T03:24:58;6.80;62.90
78733;DHT22;68056;52.530;5.454;2023-04-15T03:27:24;6.80;62.90
78733;DHT22;68056;52.530;5.454;2023-04-15T03:29:50;6.70;63.00
78733;DHT22;68056;52.530;5.454;2023-04-15T03:32:16;6.70;63.00
78733;DHT22;68056;52.530;5.454;2023-04-15T03:34:42;6.70;63.00
78733;DHT22;68056;52.530;5.454;2023-04-15T03:37:08;6.70;63.10
78733;DHT22;68056;52.530;5.454;2023-04-15T03:39:34;6.60;63.20
78733;DHT22;68056;52.530;5.454;2023-04-15T03:42:00;6.60;63.20
78733;DHT22;68056;52.530;5.454;2023-04-15T03:44:26;6.60;63.30
78733;DHT22;68056;52.530;5.454;2023-04-15T03:46:52;6.60;63.30
78733;DHT22;68056;52.530;5.454;2023-04-15T03:49:18;6.60;63.40
78733;DHT22;68056;52.530;5.454;2023-04-15T03:51:44;6.50;63.30
78733;DHT22;68056;52.530;5.454;2023-04-15T03:54:10;6.50;63.40
78733;DHT22;68056;52.530;5.454;2023-04-15T03:56:36;6.50;63.50
78733;DHT22;68056;52.530;5.454;2023-04-15T03:59:01;6.40;63.50
78733;DHT22;68056;52.530;5.454;2023-04-15T04:01:27;6.40;63.60
78733;DHT22;68056;52.530;5.454;2023-04-15T04:03:52;6.40;63.70
78733;DHT22;68056;52.530;5.454;2023-04-15T04:06:18;6.40;63.70
78733;DHT22;68056;52.530;5.454;2023-04-15T04:08:44;6.30;63.70
78733;DHT22;68056;52.530;5.454;2023-04-15T04:11:09;6.20;63.90
78733;DHT22;68056;52.530;5.454;2023-04-15T04:13:35;6.20;63.90
78733;DHT22;68056;52.530;5.454;2023-04-15T04:16:01;6.10;64.00
78733;DHT22;68056;52.530;5.454;2023-04-15T04:18:29;6.10;64.00
78733;DHT22;68056;52.530;5.454;2023-04-15T04:20:55;6.10;64.20
78733;DHT22;68056;52.530;5.454;2023-04-15T04:23:21;6.00;64.30
78733;DHT22;68056;52.530;5.454;2023-04-15T04:25:46;6.00;64.30
78733;DHT22;68056;52.530;5.454;2023-04-15T04:28:12;6.00;64.40
78733;DHT22;68056;52.530;5.454;2023-04-15T04:30:38;6.00;64.40
78733;DHT22;68056;52.530;5.454;2023-04-15T04:33:03;5.90;64.40
78733;DHT22;68056;52.530;5.454;2023-04-15T04:35:29;5.90;64.40
78733;DHT22;68056;52.530;5.454;2023-04-15T04:37:55;5.90;64.50
78733;DHT22;68056;52.530;5.454;2023-04-15T04:40:20;5.90;64.50
78733;DHT22;68056;52.530;5.454;2023-04-15T04:42:46;5.90;64.50
78733;DHT22;68056;52.530;5.454;2023-04-15T04:45:12;5.80;64.50
78733;DHT22;68056;52.530;5.454;2023-04-15T04:47:37;5.80;64.60
78733;DHT22;68056;52.530;5.454;2023-04-15T04:50:03;5.80;64.60
78733;DHT22;68056;52.530;5.454;2023-04-15T04:52:29;5.80;64.70
78733;DHT22;68056;52.530;5.454;2023-04-15T04:54:54;5.80;64.70
78733;DHT22;68056;52.530;5.454;2023-04-15T04:57:20;5.80;64.70
78733;DHT22;68056;52.530;5.454;2023-04-15T04:59:46;5.80;64.70
78733;DHT22;68056;52.530;5.454;2023-04-15T05:02:11;5.80;64.70
78733;DHT22;68056;52.530;5.454;2023-04-15T05:04:37;5.80;64.70
78733;DHT22;68056;52.530;5.454;2023-04-15T05:07:03;5.70;64.70
78733;DHT22;68056;52.530;5.454;2023-04-15T05:09:28;5.70;64.70
78733;DHT22;68056;52.530;5.454;2023-04-15T05:11:56;5.70;64.70
78733;DHT22;68056;52.530;5.454;2023-04-15T05:14:22;5.70;64.80
78733;DHT22;68056;52.530;5.454;2023-04-15T05:16:47;5.70;64.80
78733;DHT22;68056;52.530;5.454;2023-04-15T05:19:13;5.80;64.80
78733;DHT22;68056;52.530;5.454;2023-04-15T05:21:38;5.80;64.80
78733;DHT22;68056;52.530;5.454;2023-04-15T05:24:04;5.70;64.80
78733;DHT22;68056;52.530;5.454;2023-04-15T05:26:30;5.70;64.90
78733;DHT22;68056;52.530;5.454;2023-04-15T05:28:55;5.70;64.90
78733;DHT22;68056;52.530;5.454;2023-04-15T05:31:21;5.70;64.90
78733;DHT22;68056;52.530;5.454;2023-04-15T05:33:47;5.80;64.80
78733;DHT22;68056;52.530;5.454;2023-04-15T05:36:12;5.80;64.80
78733;DHT22;68056;52.530;5.454;2023-04-15T05:38:38;5.80;64.80
78733;DHT22;68056;52.530;5.454;2023-04-15T05:41:04;5.80;64.80
78733;DHT22;68056;52.530;5.454;2023-04-15T05:43:29;5.90;64.80
78733;DHT22;68056;52.530;5.454;2023-04-15T05:45:55;5.90;64.80
78733;DHT22;68056;52.530;5.454;2023-04-15T05:48:20;5.90;64.80
78733;DHT22;68056;52.530;5.454;2023-04-15T05:50:46;6.00;64.80
78733;DHT22;68056;52.530;5.454;2023-04-15T05:53:12;6.10;64.70
78733;DHT22;68056;52.530;5.454;2023-04-15T05:55:37;6.10;64.60
78733;DHT22;68056;52.530;5.454;2023-04-15T05:58:03;6.20;64.60
78733;DHT22;68056;52.530;5.454;2023-04-15T06:00:28;6.30;64.50
78733;DHT22;68056;52.530;5.454;2023-04-15T06:02:56;6.30;64.50
78733;DHT22;68056;52.530;5.454;2023-04-15T06:05:23;6.40;64.50
78733;DHT22;68056;52.530;5.454;2023-04-15T06:07:49;6.40;64.50
78733;DHT22;68056;52.530;5.454;2023-04-15T06:10:15;6.40;64.50
78733;DHT22;68056;52.530;5.454;2023-04-15T06:12:40;6.40;64.60
78733;DHT22;68056;52.530;5.454;2023-04-15T06:15:06;6.50;64.60
78733;DHT22;68056;52.530;5.454;2023-04-15T06:17:35;6.50;64.60
78733;DHT22;68056;52.530;5.454;2023-04-15T06:20:00;6.60;64.50
78733;DHT22;68056;52.530;5.454;2023-04-15T06:22:26;6.60;64.50
78733;DHT22;68056;52.530;5.454;2023-04-15T06:24:51;6.70;64.60
78733;DHT22;68056;52.530;5.454;2023-04-15T06:27:17;6.80;64.60
78733;DHT22;68056;52.530;5.454;2023-04-15T06:29:43;6.80;64.50
78733;DHT22;68056;52.530;5.454;2023-04-15T06:32:10;7.00;64.50
78733;DHT22;68056;52.530;5.454;2023-04-15T06:34:36;7.10;64.50
78733;DHT22;68056;52.530;5.454;2023-04-15T06:37:01;7.20;64.30
78733;DHT22;68056;52.530;5.454;2023-04-15T06:39:27;7.50;64.20
78733;DHT22;68056;52.530;5.454;2023-04-15T06:41:52;7.60;64.10
78733;DHT22;68056;52.530;5.454;2023-04-15T06:44:18;7.80;63.90
78733;DHT22;68056;52.530;5.454;2023-04-15T06:46:44;8.00;63.80
78733;DHT22;68056;52.530;5.454;2023-04-15T06:49:10;8.20;63.70
78733;DHT22;68056;52.530;5.454;2023-04-15T06:51:36;8.40;63.60
78733;DHT22;68056;52.530;5.454;2023-04-15T06:54:05;8.60;63.50
78733;DHT22;68056;52.530;5.454;2023-04-15T06:58:57;8.80;63.30
78733;DHT22;68056;52.530;5.454;2023-04-15T07:01:22;9.00;63.20
78733;DHT22;68056;52.530;5.454;2023-04-15T07:03:48;9.20;63.10
78733;DHT22;68056;52.530;5.454;2023-04-15T07:06:14;9.30;63.00
78733;DHT22;68056;52.530;5.454;2023-04-15T07:08:39;9.40;62.90
78733;DHT22;68056;52.530;5.454;2023-04-15T07:11:05;9.60;62.80
78733;DHT22;68056;52.530;5.454;2023-04-15T07:13:31;9.80;62.80
78733;DHT22;68056;52.530;5.454;2023-04-15T07:15:57;10.00;62.70
78733;DHT22;68056;52.530;5.454;2023-04-15T07:18:23;10.10;62.50
78733;DHT22;68056;52.530;5.454;2023-04-15T07:20:48;10.20;62.50
78733;DHT22;68056;52.530;5.454;2023-04-15T07:23:14;10.40;62.40
78733;DHT22;68056;52.530;5.454;2023-04-15T07:25:40;10.60;62.20
78733;DHT22;68056;52.530;5.454;2023-04-15T07:28:06;10.70;62.10
78733;DHT22;68056;52.530;5.454;2023-04-15T07:30:31;10.70;62.00
78733;DHT22;68056;52.530;5.454;2023-04-15T07:32:57;10.70;62.10
78733;DHT22;68056;52.530;5.454;2023-04-15T07:35:23;10.60;62.20
78733;DHT22;68056;52.530;5.454;2023-04-15T07:37:50;10.40;62.40
78733;DHT22;68056;52.530;5.454;2023-04-15T07:40:16;10.40;62.60
78733;DHT22;68056;52.530;5.454;2023-04-15T07:42:42;10.50;62.50
78733;DHT22;68056;52.530;5.454;2023-04-15T07:45:09;10.70;62.40
78733;DHT22;68056;52.530;5.454;2023-04-15T07:47:34;11.10;62.00
78733;DHT22;68056;52.530;5.454;2023-04-15T07:50:00;11.30;61.70
78733;DHT22;68056;52.530;5.454;2023-04-15T07:52:27;11.40;61.50
78733;DHT22;68056;52.530;5.454;2023-04-15T07:54:52;11.50;61.40
78733;DHT22;68056;52.530;5.454;2023-04-15T07:57:18;11.70;61.30
78733;DHT22;68056;52.530;5.454;2023-04-15T07:59:44;11.70;61.20
78733;DHT22;68056;52.530;5.454;2023-04-15T08:02:10;11.90;61.00
78733;DHT22;68056;52.530;5.454;2023-04-15T08:04:36;11.90;60.90
78733;DHT22;68056;52.530;5.454;2023-04-15T08:07:02;11.90;60.90
78733;DHT22;68056;52.530;5.454;2023-04-15T08:09:28;11.90;61.00
78733;DHT22;68056;52.530;5.454;2023-04-15T08:11:53;11.90;61.00
78733;DHT22;68056;52.530;5.454;2023-04-15T08:14:19;11.80;61.10
78733;DHT22;68056;52.530;5.454;2023-04-15T08:16:45;11.80;61.20
78733;DHT22;68056;52.530;5.454;2023-04-15T08:19:10;11.80;61.10
78733;DHT22;68056;52.530;5.454;2023-04-15T08:21:36;11.80;61.10
78733;DHT22;68056;52.530;5.454;2023-04-15T08:24:01;11.80;61.10
78733;DHT22;68056;52.530;5.454;2023-04-15T08:26:27;11.90;61.10
78733;DHT22;68056;52.530;5.454;2023-04-15T08:28:53;11.90;61.00
78733;DHT22;68056;52.530;5.454;2023-04-15T08:31:19;12.00;61.00
78733;DHT22;68056;52.530;5.454;2023-04-15T08:33:45;12.10;60.90
78733;DHT22;68056;52.530;5.454;2023-04-15T08:36:11;12.30;60.80
78733;DHT22;68056;52.530;5.454;2023-04-15T08:38:38;12.50;60.50
78733;DHT22;68056;52.530;5.454;2023-04-15T08:41:11;12.60;60.40
78733;DHT22;68056;52.530;5.454;2023-04-15T08:43:56;12.80;60.30
78733;DHT22;68056;52.530;5.454;2023-04-15T08:46:22;13.10;60.10
78733;DHT22;68056;52.530;5.454;2023-04-15T08:48:48;13.30;59.80
78733;DHT22;68056;52.530;5.454;2023-04-15T08:51:15;13.50;59.50
78733;DHT22;68056;52.530;5.454;2023-04-15T08:53:42;13.60;59.10
78733;DHT22;68056;52.530;5.454;2023-04-15T08:56:09;13.60;59.20
78733;DHT22;68056;52.530;5.454;2023-04-15T08:58:36;13.70;59.10
78733;DHT22;68056;52.530;5.454;2023-04-15T09:01:02;13.90;59.00
78733;DHT22;68056;52.530;5.454;2023-04-15T09:03:28;13.90;59.00
78733;DHT22;68056;52.530;5.454;2023-04-15T09:05:54;14.00;59.00
78733;DHT22;68056;52.530;5.454;2023-04-15T09:08:21;14.00;59.10
78733;DHT22;68056;52.530;5.454;2023-04-15T09:10:47;14.00;59.20
78733;DHT22;68056;52.530;5.454;2023-04-15T09:13:13;14.00;59.20
78733;DHT22;68056;52.530;5.454;2023-04-15T09:15:38;14.20;59.10
78733;DHT22;68056;52.530;5.454;2023-04-15T09:18:04;14.20;59.00
78733;DHT22;68056;52.530;5.454;2023-04-15T09:20:40;14.20;59.00
78733;DHT22;68056;52.530;5.454;2023-04-15T09:23:14;14.30;58.90
78733;DHT22;68056;52.530;5.454;2023-04-15T09:25:40;14.40;58.70
78733;DHT22;68056;52.530;5.454;2023-04-15T09:28:09;14.50;58.80
78733;DHT22;68056;52.530;5.454;2023-04-15T09:30:35;14.60;58.70
78733;DHT22;68056;52.530;5.454;2023-04-15T09:35:20;14.70;58.70
78733;DHT22;68056;52.530;5.454;2023-04-15T09:37:47;14.60;58.70
78733;DHT22;68056;52.530;5.454;2023-04-15T09:40:13;14.50;58.80
78733;DHT22;68056;52.530;5.454;2023-04-15T09:42:55;14.30;59.10
78733;DHT22;68056;52.530;5.454;2023-04-15T09:45:21;14.40;59.40
78733;DHT22;68056;52.530;5.454;2023-04-15T09:47:47;14.60;59.20
78733;DHT22;68056;52.530;5.454;2023-04-15T09:50:13;14.80;59.10
78733;DHT22;68056;52.530;5.454;2023-04-15T09:52:42;14.80;58.70
78733;DHT22;68056;52.530;5.454;2023-04-15T09:55:08;14.90;58.60
78733;DHT22;68056;52.530;5.454;2023-04-15T09:57:35;15.00;58.20
78733;DHT22;68056;52.530;5.454;2023-04-15T10:00:05;15.20;57.90
78733;DHT22;68056;52.530;5.454;2023-04-15T10:02:33;15.40;57.50
78733;DHT22;68056;52.530;5.454;2023-04-15T10:05:00;15.60;57.00
78733;DHT22;68056;52.530;5.454;2023-04-15T10:07:26;15.80;56.70
78733;DHT22;68056;52.530;5.454;2023-04-15T10:09:52;15.80;56.30
78733;DHT22;68056;52.530;5.454;2023-04-15T10:12:19;15.80;56.10
78733;DHT22;68056;52.530;5.454;2023-04-15T10:14:50;15.70;56.20
78733;DHT22;68056;52.530;5.454;2023-04-15T10:17:21;15.60;56.20
78733;DHT22;68056;52.530;5.454;2023-04-15T10:19:47;15.60;56.20
78733;DHT22;68056;52.530;5.454;2023-04-15T10:22:14;15.60;56.20
78733;DHT22;68056;52.530;5.454;2023-04-15T10:24:41;15.60;56.10
78733;DHT22;68056;52.530;5.454;2023-04-15T10:27:07;15.60;56.00
78733;DHT22;68056;52.530;5.454;2023-04-15T10:29:34;15.60;56.10
78733;DHT22;68056;52.530;5.454;2023-04-15T10:31:59;15.60;56.00
78733;DHT22;68056;52.530;5.454;2023-04-15T10:34:26;15.60;56.00
78733;DHT22;68056;52.530;5.454;2023-04-15T10:37:08;15.60;55.90
78733;DHT22;68056;52.530;5.454;2023-04-15T10:42:13;15.80;56.00
78733;DHT22;68056;52.530;5.454;2023-04-15T10:44:43;16.00;55.90
78733;DHT22;68056;52.530;5.454;2023-04-15T10:47:17;16.00;55.60
78733;DHT22;68056;52.530;5.454;2023-04-15T10:49:51;16.10;55.70
78733;DHT22;68056;52.530;5.454;2023-04-15T10:52:27;16.30;55.60
78733;DHT22;68056;52.530;5.454;2023-04-15T10:55:15;16.30;55.40
78733;DHT22;68056;52.530;5.454;2023-04-15T10:57:43;16.20;55.40
78733;DHT22;68056;52.530;5.454;2023-04-15T11:05:18;16.60;55.30
78733;DHT22;68056;52.530;5.454;2023-04-15T11:07:52;16.80;55.10
78733;DHT22;68056;52.530;5.454;2023-04-15T11:12:58;17.20;54.80
78733;DHT22;68056;52.530;5.454;2023-04-15T11:15:31;17.30;54.40
78733;DHT22;68056;52.530;5.454;2023-04-15T11:17:57;17.50;54.50
78733;DHT22;68056;52.530;5.454;2023-04-15T11:20:23;17.70;54.10
78733;DHT22;68056;52.530;5.454;2023-04-15T11:22:50;17.70;54.00
78733;DHT22;68056;52.530;5.454;2023-04-15T11:25:28;17.60;53.80
78733;DHT22;68056;52.530;5.454;2023-04-15T11:27:55;17.80;54.00
78733;DHT22;68056;52.530;5.454;2023-04-15T11:30:21;18.00;53.80
78733;DHT22;68056;52.530;5.454;2023-04-15T11:32:48;18.20;53.60
78733;DHT22;68056;52.530;5.454;2023-04-15T11:35:15;18.30;53.40
78733;DHT22;68056;52.530;5.454;2023-04-15T11:37:42;18.10;53.40
78733;DHT22;68056;52.530;5.454;2023-04-15T11:40:08;17.80;53.70
78733;DHT22;68056;52.530;5.454;2023-04-15T11:42:34;17.60;53.90
78733;DHT22;68056;52.530;5.454;2023-04-15T11:45:07;17.80;54.10
78733;DHT22;68056;52.530;5.454;2023-04-15T11:47:34;18.00;53.80
78733;DHT22;68056;52.530;5.454;2023-04-15T11:50:16;18.20;53.70
78733;DHT22;68056;52.530;5.454;2023-04-15T11:53:02;18.30;53.60
78733;DHT22;68056;52.530;5.454;2023-04-15T11:55:29;18.30;53.50
78733;DHT22;68056;52.530;5.454;2023-04-15T11:58:10;18.10;53.60
78733;DHT22;68056;52.530;5.454;2023-04-15T12:00:36;17.90;53.90
78733;DHT22;68056;52.530;5.454;2023-04-15T12:11:44;18.40;53.40
78733;DHT22;68056;52.530;5.454;2023-04-15T12:17:02;18.20;53.40
78733;DHT22;68056;52.530;5.454;2023-04-15T12:19:33;18.00;53.60
78733;DHT22;68056;52.530;5.454;2023-04-15T12:22:04;17.70;53.80
78733;DHT22;68056;52.530;5.454;2023-04-15T12:24:32;17.40;54.10
78733;DHT22;68056;52.530;5.454;2023-04-15T12:27:04;16.90;54.50
78733;DHT22;68056;52.530;5.454;2023-04-15T12:29:31;16.60;54.80
78733;DHT22;68056;52.530;5.454;2023-04-15T12:32:17;16.40;55.00
78733;DHT22;68056;52.530;5.454;2023-04-15T12:34:52;16.20;55.20
78733;DHT22;68056;52.530;5.454;2023-04-15T12:37:21;16.00;55.30
78733;DHT22;68056;52.530;5.454;2023-04-15T12:39:47;15.80;55.50
78733;DHT22;68056;52.530;5.454;2023-04-15T12:42:14;15.80;55.50
78733;DHT22;68056;52.530;5.454;2023-04-15T12:44:40;15.60;55.50
78733;DHT22;68056;52.530;5.454;2023-04-15T12:47:06;15.50;55.50
78733;DHT22;68056;52.530;5.454;2023-04-15T12:49:32;15.40;55.70
78733;DHT22;68056;52.530;5.454;2023-04-15T12:51:59;15.30;55.80
78733;DHT22;68056;52.530;5.454;2023-04-15T12:54:25;15.30;55.70
78733;DHT22;68056;52.530;5.454;2023-04-15T12:56:52;15.30;55.80
78733;DHT22;68056;52.530;5.454;2023-04-15T12:59:18;15.30;55.80
78733;DHT22;68056;52.530;5.454;2023-04-15T13:01:45;15.20;55.60
78733;DHT22;68056;52.530;5.454;2023-04-15T13:04:11;15.10;55.70
78733;DHT22;68056;52.530;5.454;2023-04-15T13:06:37;15.00;55.70
78733;DHT22;68056;52.530;5.454;2023-04-15T13:09:03;15.00;55.80
78733;DHT22;68056;52.530;5.454;2023-04-15T13:11:29;15.00;55.80
78733;DHT22;68056;52.530;5.454;2023-04-15T13:14:06;14.90;55.90
78733;DHT22;68056;52.530;5.454;2023-04-15T13:16:33;14.80;56.00
78733;DHT22;68056;52.530;5.454;2023-04-15T13:18:59;14.70;56.10
78733;DHT22;68056;52.530;5.454;2023-04-15T13:21:26;14.60;56.40
78733;DHT22;68056;52.530;5.454;2023-04-15T13:23:52;14.60;56.50
78733;DHT22;68056;52.530;5.454;2023-04-15T13:26:18;14.50;56.70
78733;DHT22;68056;52.530;5.454;2023-04-15T13:28:44;14.30;56.90
78733;DHT22;68056;52.530;5.454;2023-04-15T13:31:10;14.20;57.10
78733;DHT22;68056;52.530;5.454;2023-04-15T13:33:36;14.10;57.30
78733;DHT22;68056;52.530;5.454;2023-04-15T13:36:01;14.00;57.50
78733;DHT22;68056;52.530;5.454;2023-04-15T13:38:27;14.10;57.50
78733;DHT22;68056;52.530;5.454;2023-04-15T13:40:53;14.10;57.50
78733;DHT22;68056;52.530;5.454;2023-04-15T13:43:18;14.00;57.60
78733;DHT22;68056;52.530;5.454;2023-04-15T13:45:45;13.90;57.80
78733;DHT22;68056;52.530;5.454;2023-04-15T13:48:11;13.90;57.90
78733;DHT22;68056;52.530;5.454;2023-04-15T13:50:37;13.90;57.80
78733;DHT22;68056;52.530;5.454;2023-04-15T13:53:02;13.80;57.80
78733;DHT22;68056;52.530;5.454;2023-04-15T13:55:28;13.70;57.80
78733;DHT22;68056;52.530;5.454;2023-04-15T13:57:53;13.70;57.70
78733;DHT22;68056;52.530;5.454;2023-04-15T14:00:19;13.60;57.70
78733;DHT22;68056;52.530;5.454;2023-04-15T14:02:44;13.60;57.70
78733;DHT22;68056;52.530;5.454;2023-04-15T14:05:11;13.50;57.70
78733;DHT22;68056;52.530;5.454;2023-04-15T14:07:36;13.50;57.80
78733;DHT22;68056;52.530;5.454;2023-04-15T14:10:02;13.50;58.00
78733;DHT22;68056;52.530;5.454;2023-04-15T14:12:28;13.30;58.10
78733;DHT22;68056;52.530;5.454;2023-04-15T14:14:53;13.30;58.20
78733;DHT22;68056;52.530;5.454;2023-04-15T14:17:19;13.20;58.30
78733;DHT22;68056;52.530;5.454;2023-04-15T14:19:45;13.10;58.30
78733;DHT22;68056;52.530;5.454;2023-04-15T14:22:10;13.10;58.30
78733;DHT22;68056;52.530;5.454;2023-04-15T14:24:36;13.10;58.30
78733;DHT22;68056;52.530;5.454;2023-04-15T14:27:02;13.10;58.30
78733;DHT22;68056;52.530;5.454;2023-04-15T14:29:28;13.00;58.30
78733;DHT22;68056;52.530;5.454;2023-04-15T14:31:53;12.90;58.60
78733;DHT22;68056;52.530;5.454;2023-04-15T14:34:21;12.70;58.90
78733;DHT22;68056;52.530;5.454;2023-04-15T14:36:49;12.60;59.10
78733;DHT22;68056;52.530;5.454;2023-04-15T14:39:15;12.50;59.10
78733;DHT22;68056;52.530;5.454;2023-04-15T14:41:41;12.40;59.30
78733;DHT22;68056;52.530;5.454;2023-04-15T14:44:06;12.30;59.30
78733;DHT22;68056;52.530;5.454;2023-04-15T14:46:33;12.30;59.40
78733;DHT22;68056;52.530;5.454;2023-04-15T14:48:59;12.20;59.50
78733;DHT22;68056;52.530;5.454;2023-04-15T14:51:25;12.10;59.50
78733;DHT22;68056;52.530;5.454;2023-04-15T14:53:51;11.90;59.80
78733;DHT22;68056;52.530;5.454;2023-04-15T14:56:16;11.90;59.90
78733;DHT22;68056;52.530;5.454;2023-04-15T14:58:42;11.90;60.00
78733;DHT22;68056;52.530;5.454;2023-04-15T15:01:07;11.70;60.10
78733;DHT22;68056;52.530;5.454;2023-04-15T15:03:33;11.70;60.30
78733;DHT22;68056;52.530;5.454;2023-04-15T15:05:59;11.70;60.40
78733;DHT22;68056;52.530;5.454;2023-04-15T15:08:24;11.70;60.50
78733;DHT22;68056;52.530;5.454;2023-04-15T15:10:50;11.70;60.50
78733;DHT22;68056;52.530;5.454;2023-04-15T15:13:16;11.70;60.50
78733;DHT22;68056;52.530;5.454;2023-04-15T15:15:42;11.70;60.40
78733;DHT22;68056;52.530;5.454;2023-04-15T15:18:07;11.60;60.40
78733;DHT22;68056;52.530;5.454;2023-04-15T15:20:34;11.50;60.50
78733;DHT22;68056;52.530;5.454;2023-04-15T15:23:00;11.50;60.60
78733;DHT22;68056;52.530;5.454;2023-04-15T15:25:26;11.50;60.70
78733;DHT22;68056;52.530;5.454;2023-04-15T15:27:51;11.50;60.80
78733;DHT22;68056;52.530;5.454;2023-04-15T15:30:17;11.50;60.80
78733;DHT22;68056;52.530;5.454;2023-04-15T15:32:43;11.50;60.90
78733;DHT22;68056;52.530;5.454;2023-04-15T15:35:09;11.50;60.80
78733;DHT22;68056;52.530;5.454;2023-04-15T15:37:35;11.40;60.80
78733;DHT22;68056;52.530;5.454;2023-04-15T15:40:05;11.40;60.90
78733;DHT22;68056;52.530;5.454;2023-04-15T15:42:32;11.30;60.90
78733;DHT22;68056;52.530;5.454;2023-04-15T15:44:58;11.30;61.00
78733;DHT22;68056;52.530;5.454;2023-04-15T15:47:23;11.20;61.10
78733;DHT22;68056;52.530;5.454;2023-04-15T15:49:52;11.20;61.10
78733;DHT22;68056;52.530;5.454;2023-04-15T15:52:17;11.20;61.00
78733;DHT22;68056;52.530;5.454;2023-04-15T15:54:43;11.10;61.00
78733;DHT22;68056;52.530;5.454;2023-04-15T15:57:09;11.10;61.10
78733;DHT22;68056;52.530;5.454;2023-04-15T15:59:35;11.10;61.20